Time,TemperatureF,DewpointF,PressureIn,WindDirection,WindDirectionDegrees,WindSpeedMPH,WindSpeedGustMPH,Humidity,HourlyPrecipIn,Conditions,Clouds,dailyrainin,SoftwareType,DateUTC
2013-04-28 00:12:00,51.3,44.7,29.86,SSW,202,5.3,-999.0,78,-99.99,,,0.00,Acu-Link.com,2013-04-28 04:12:00,
2013-04-28 00:27:00,51.1,44.5,29.86,South,180,4.7,-999.0,78,-99.99,,,0.00,Acu-Link.com,2013-04-28 04:27:00,
2013-04-28 00:42:00,50.7,44.4,29.86,SSW,202,7.8,-999.0,79,-99.99,,,0.00,Acu-Link.com,2013-04-28 04:42:00,
2013-04-28 00:57:00,50.5,44.2,29.86,SSW,202,5.8,-999.0,79,-99.99,,,0.00,Acu-Link.com,2013-04-28 04:57:00,
2013-04-28 01:12:00,50.7,44.4,29.86,SSW,202,5.3,-999.0,79,-99.99,,,0.00,Acu-Link.com,2013-04-28 05:12:00,
2013-04-28 01:27:00,50.4,44.1,29.85,SSW,202,5.8,-999.0,79,-99.99,,,0.00,Acu-Link.com,2013-04-28 05:27:00,
2013-04-28 01:42:00,50.4,44.5,29.85,SSW,202,5.3,-999.0,80,-99.99,,,0.00,Acu-Link.com,2013-04-28 05:42:00,
2013-04-28 01:58:00,50.0,44.1,29.85,SSW,202,3.7,-999.0,80,-99.99,,,0.00,Acu-Link.com,2013-04-28 05:58:00,
2013-04-28 02:13:00,50.0,44.1,29.84,SSW,202,6.8,-999.0,80,-99.99,,,0.00,Acu-Link.com,2013-04-28 06:13:00,
2013-04-28 02:28:00,50.0,44.1,29.84,SSW,202,8.9,-999.0,80,-99.99,,,0.00,Acu-Link.com,2013-04-28 06:28:00,
2013-04-28 02:43:00,49.8,43.6,29.84,SSW,202,5.3,-999.0,79,-99.99,,,0.00,Acu-Link.com,2013-04-28 06:43:00,
2013-04-28 02:58:00,49.6,43.7,29.83,South,180,8.9,-999.0,80,-99.99,,,0.00,Acu-Link.com,2013-04-28 06:58:00,
2013-04-28 03:13:00,49.3,43.4,29.83,SSW,202,6.3,-999.0,80,-99.99,,,0.00,Acu-Link.com,2013-04-28 07:13:00,
2013-04-28 03:29:00,49.1,43.2,29.82,SSW,202,5.3,-999.0,80,-99.99,,,0.00,Acu-Link.com,2013-04-28 07:29:00,
2013-04-28 03:44:00,48.6,43.0,29.82,SSW,202,4.2,-999.0,81,-99.99,,,0.00,Acu-Link.com,2013-04-28 07:44:00,
2013-04-28 03:59:00,48.2,42.6,29.82,SSW,202,5.8,-999.0,81,-99.99,,,0.00,Acu-Link.com,2013-04-28 07:59:00,
2013-04-28 04:15:00,48.2,42.6,29.82,SSW,202,4.7,-999.0,81,-99.99,,,0.00,Acu-Link.com,2013-04-28 08:15:00,
2013-04-28 04:30:00,48.0,42.8,29.82,SSW,202,5.8,-999.0,82,-99.99,,,0.00,Acu-Link.com,2013-04-28 08:30:00,
2013-04-28 04:45:00,48.2,42.6,29.82,SSW,202,5.3,-999.0,81,-99.99,,,0.00,Acu-Link.com,2013-04-28 08:45:00,
2013-04-28 05:00:00,48.2,42.6,29.82,SSW,202,6.3,-999.0,81,-99.99,,,0.00,Acu-Link.com,2013-04-28 09:00:00,
2013-04-28 05:15:00,47.8,42.3,29.82,SSW,202,7.3,-999.0,81,-99.99,,,0.00,Acu-Link.com,2013-04-28 09:15:00,
2013-04-28 05:30:00,47.5,42.3,29.82,SSW,202,5.8,-999.0,82,-99.99,,,0.00,Acu-Link.com,2013-04-28 09:30:00,
2013-04-28 05:46:00,47.7,42.5,29.81,SSW,202,4.7,-999.0,82,-99.99,,,0.00,Acu-Link.com,2013-04-28 09:46:00,
2013-04-28 06:01:00,48.0,42.5,29.82,SSW,202,5.8,-999.0,81,-99.99,,,0.00,Acu-Link.com,2013-04-28 10:01:00,
2013-04-28 06:16:00,48.0,42.1,29.81,SSW,202,6.3,-999.0,80,-99.99,,,0.00,Acu-Link.com,2013-04-28 10:16:00,
2013-04-28 06:31:00,47.1,41.9,29.82,SSW,202,5.3,-999.0,82,-99.99,,,0.00,Acu-Link.com,2013-04-28 10:31:00,
2013-04-28 06:46:00,46.8,41.6,29.81,SSW,202,8.3,-999.0,82,-99.99,,,0.00,Acu-Link.com,2013-04-28 10:46:00,
2013-04-28 07:01:00,46.9,41.4,29.81,SSW,202,4.7,-999.0,81,-99.99,,,0.00,Acu-Link.com,2013-04-28 11:01:00,
2013-04-28 07:16:00,47.1,41.3,29.81,SSW,202,7.8,-999.0,80,-99.99,,,0.00,Acu-Link.com,2013-04-28 11:16:00,
2013-04-28 07:31:00,47.7,41.2,29.81,SSW,202,4.2,-999.0,78,-99.99,,,0.00,Acu-Link.com,2013-04-28 11:31:00,
2013-04-28 07:46:00,48.7,41.8,29.81,SSW,202,7.3,-999.0,77,-99.99,,,0.00,Acu-Link.com,2013-04-28 11:46:00,
2013-04-28 08:02:00,50.2,42.6,29.82,SSW,202,5.8,-999.0,75,-99.99,,,0.00,Acu-Link.com,2013-04-28 12:02:00,
2013-04-28 08:17:00,51.3,42.9,29.81,SSW,202,8.3,-999.0,73,-99.99,,,0.00,Acu-Link.com,2013-04-28 12:17:00,
2013-04-28 08:32:00,52.7,43.2,29.81,SSW,202,7.3,-999.0,70,-99.99,,,0.00,Acu-Link.com,2013-04-28 12:32:00,
2013-04-28 08:47:00,54.0,43.7,29.81,South,180,4.7,-999.0,68,-99.99,,,0.00,Acu-Link.com,2013-04-28 12:47:00,
2013-04-28 09:02:00,54.9,43.8,29.81,SSW,202,4.7,-999.0,66,-99.99,,,0.00,Acu-Link.com,2013-04-28 13:02:00,
2013-04-28 09:17:00,55.4,43.8,29.81,SSW,202,5.8,-999.0,65,-99.99,,,0.00,Acu-Link.com,2013-04-28 13:17:00,
2013-04-28 09:32:00,56.8,43.9,29.81,West,270,11.9,-999.0,62,-99.99,,,0.00,Acu-Link.com,2013-04-28 13:32:00,
2013-04-28 09:47:00,58.8,44.5,29.81,SW,225,6.8,-999.0,59,-99.99,,,0.00,Acu-Link.com,2013-04-28 13:47:00,
2013-04-28 10:02:00,60.1,44.8,29.80,SSW,202,6.3,-999.0,57,-99.99,,,0.00,Acu-Link.com,2013-04-28 14:02:00,
2013-04-28 10:18:00,62.4,45.0,29.80,South,180,5.3,-999.0,53,-99.99,,,0.00,Acu-Link.com,2013-04-28 14:18:00,
2013-04-28 10:33:00,63.5,45.6,29.79,SSW,202,4.2,-999.0,52,-99.99,,,0.00,Acu-Link.com,2013-04-28 14:33:00,
2013-04-28 10:48:00,63.7,45.2,29.78,South,180,9.9,-999.0,51,-99.99,,,0.00,Acu-Link.com,2013-04-28 14:48:00,
2013-04-28 11:03:00,65.7,45.5,29.78,South,180,6.8,-999.0,48,-99.99,,,0.00,Acu-Link.com,2013-04-28 15:03:00,
2013-04-28 11:19:00,66.0,44.6,29.77,SSW,202,5.3,-999.0,46,-99.99,,,0.00,Acu-Link.com,2013-04-28 15:19:00,
2013-04-28 11:34:00,66.7,44.7,29.77,SSW,202,6.8,-999.0,45,-99.99,,,0.00,Acu-Link.com,2013-04-28 15:34:00,
2013-04-28 11:49:00,68.5,44.5,29.77,SSE,157,6.3,-999.0,42,-99.99,,,0.00,Acu-Link.com,2013-04-28 15:49:00,
2013-04-28 12:04:00,68.9,43.6,29.76,SW,225,7.8,-999.0,40,-99.99,,,0.00,Acu-Link.com,2013-04-28 16:04:00,
2013-04-28 12:19:00,69.6,43.5,29.76,SSW,202,6.8,-999.0,39,-99.99,,,0.00,Acu-Link.com,2013-04-28 16:19:00,
2013-04-28 12:34:00,69.8,43.7,29.75,SSW,202,13.0,-999.0,39,-99.99,,,0.00,Acu-Link.com,2013-04-28 16:34:00,
2013-04-28 12:49:00,70.2,43.4,29.75,South,180,8.3,-999.0,38,-99.99,,,0.00,Acu-Link.com,2013-04-28 16:49:00,
2013-04-28 13:04:00,70.7,43.1,29.74,SSW,202,4.7,-999.0,37,-99.99,,,0.00,Acu-Link.com,2013-04-28 17:04:00,
2013-04-28 13:19:00,70.5,43.0,29.72,SSW,202,13.5,-999.0,37,-99.99,,,0.00,Acu-Link.com,2013-04-28 17:19:00,
2013-04-28 13:34:00,69.6,42.9,29.72,SSW,202,8.3,-999.0,38,-99.99,,,0.00,Acu-Link.com,2013-04-28 17:34:00,
2013-04-28 13:49:00,71.6,43.9,29.72,South,180,3.7,-999.0,37,-99.99,,,0.00,Acu-Link.com,2013-04-28 17:49:00,
2013-04-28 14:05:00,71.6,43.9,29.71,SSE,157,8.3,-999.0,37,-99.99,,,0.00,Acu-Link.com,2013-04-28 18:05:00,
2013-04-28 14:20:00,72.5,44.0,29.71,South,180,6.3,-999.0,36,-99.99,,,0.00,Acu-Link.com,2013-04-28 18:20:00,
2013-04-28 14:35:00,72.5,44.0,29.70,SSW,202,12.5,-999.0,36,-99.99,,,0.00,Acu-Link.com,2013-04-28 18:35:00,
2013-04-28 14:50:00,72.5,44.7,29.70,SSE,157,8.3,-999.0,37,-99.99,,,0.00,Acu-Link.com,2013-04-28 18:50:00,
2013-04-28 15:05:00,72.9,45.1,29.70,South,180,6.8,-999.0,37,-99.99,,,0.00,Acu-Link.com,2013-04-28 19:05:00,
2013-04-28 15:20:00,72.5,44.0,29.69,South,180,5.3,-999.0,36,-99.99,,,0.00,Acu-Link.com,2013-04-28 19:20:00,
2013-04-28 15:35:00,72.5,44.0,29.69,SSW,202,5.3,-999.0,36,-99.99,,,0.00,Acu-Link.com,2013-04-28 19:35:00,
2013-04-28 15:50:00,72.3,43.8,29.68,SSE,157,6.8,-999.0,36,-99.99,,,0.00,Acu-Link.com,2013-04-28 19:50:00,
2013-04-28 16:05:00,71.8,44.1,29.68,SSE,157,2.7,-999.0,37,-99.99,,,0.00,Acu-Link.com,2013-04-28 20:05:00,
2013-04-28 16:21:00,72.9,44.4,29.66,SSW,202,8.3,-999.0,36,-99.99,,,0.00,Acu-Link.com,2013-04-28 20:21:00,
2013-04-28 16:36:00,72.3,43.1,29.66,SSW,202,6.3,-999.0,35,-99.99,,,0.00,Acu-Link.com,2013-04-28 20:36:00,
2013-04-28 16:51:00,73.6,43.5,29.66,SSE,157,6.8,-999.0,34,-99.99,,,0.00,Acu-Link.com,2013-04-28 20:51:00,
2013-04-28 17:06:00,72.9,43.6,29.66,SSE,157,10.4,-999.0,35,-99.99,,,0.00,Acu-Link.com,2013-04-28 21:06:00,
2013-04-28 17:21:00,72.1,42.2,29.65,South,180,2.7,-999.0,34,-99.99,,,0.00,Acu-Link.com,2013-04-28 21:21:00,
2013-04-28 17:36:00,71.6,41.7,29.64,SSE,157,5.3,-999.0,34,-99.99,,,0.00,Acu-Link.com,2013-04-28 21:36:00,
2013-04-28 17:52:00,72.1,42.2,29.64,South,180,7.3,-999.0,34,-99.99,,,0.00,Acu-Link.com,2013-04-28 21:52:00,
2013-04-28 18:07:00,72.1,41.4,29.64,South,180,9.9,-999.0,33,-99.99,,,0.00,Acu-Link.com,2013-04-28 22:07:00,
2013-04-28 18:22:00,71.8,41.9,29.64,SSW,202,5.8,-999.0,34,-99.99,,,0.00,Acu-Link.com,2013-04-28 22:22:00,
2013-04-28 18:37:00,71.6,41.7,29.64,South,180,9.4,-999.0,34,-99.99,,,0.00,Acu-Link.com,2013-04-28 22:37:00,
2013-04-28 18:52:00,71.1,41.3,29.64,SSW,202,10.9,-999.0,34,-99.99,,,0.00,Acu-Link.com,2013-04-28 22:52:00,
2013-04-28 19:07:00,70.5,41.5,29.64,SSE,157,3.2,-999.0,35,-99.99,,,0.00,Acu-Link.com,2013-04-28 23:07:00,
2013-04-28 19:23:00,70.2,41.3,29.64,South,180,3.7,-999.0,35,-99.99,,,0.00,Acu-Link.com,2013-04-28 23:23:00,
2013-04-28 19:38:00,69.6,40.0,29.64,South,180,5.8,-999.0,34,-99.99,,,0.00,Acu-Link.com,2013-04-28 23:38:00,
2013-04-28 19:53:00,68.2,38.8,29.64,South,180,6.3,-999.0,34,-99.99,,,0.00,Acu-Link.com,2013-04-28 23:53:00,
2013-04-28 20:09:00,66.9,38.4,29.64,South,180,5.8,-999.0,35,-99.99,,,0.00,Acu-Link.com,2013-04-29 00:09:00,
2013-04-28 20:24:00,65.1,37.5,29.64,SSW,202,5.8,-999.0,36,-99.99,,,0.00,Acu-Link.com,2013-04-29 00:24:00,
2013-04-28 20:39:00,63.9,37.1,29.64,South,180,9.4,-999.0,37,-99.99,,,0.00,Acu-Link.com,2013-04-29 00:39:00,
2013-04-28 20:55:00,62.6,36.6,29.64,South,180,4.7,-999.0,38,-99.99,,,0.00,Acu-Link.com,2013-04-29 00:55:00,
2013-04-28 21:10:00,61.9,36.7,29.64,SSW,202,4.2,-999.0,39,-99.99,,,0.00,Acu-Link.com,2013-04-29 01:10:00,
2013-04-28 21:25:00,60.8,37.0,29.65,South,180,4.7,-999.0,41,-99.99,,,0.00,Acu-Link.com,2013-04-29 01:25:00,
2013-04-28 21:40:00,60.3,35.9,29.66,SSW,202,5.3,-999.0,40,-99.99,,,0.00,Acu-Link.com,2013-04-29 01:40:00,
2013-04-28 21:55:00,59.7,35.3,29.66,SSW,202,3.7,-999.0,40,-99.99,,,0.00,Acu-Link.com,2013-04-29 01:55:00,
2013-04-28 22:11:00,58.6,35.6,29.66,South,180,4.2,-999.0,42,-99.99,,,0.00,Acu-Link.com,2013-04-29 02:11:00,
2013-04-28 22:26:00,57.6,35.3,29.67,SSW,202,7.8,-999.0,43,-99.99,,,0.00,Acu-Link.com,2013-04-29 02:26:00,
2013-04-28 22:41:00,56.8,35.1,29.67,SSW,202,5.3,-999.0,44,-99.99,,,0.00,Acu-Link.com,2013-04-29 02:41:00,
2013-04-28 22:56:00,56.3,35.2,29.67,SSW,202,10.4,-999.0,45,-99.99,,,0.00,Acu-Link.com,2013-04-29 02:56:00,
2013-04-28 23:11:00,55.9,34.9,29.67,SSW,202,5.3,-999.0,45,-99.99,,,0.00,Acu-Link.com,2013-04-29 03:11:00,
2013-04-28 23:26:00,55.4,35.0,29.68,SSW,202,6.8,-999.0,46,-99.99,,,0.00,Acu-Link.com,2013-04-29 03:26:00,
2013-04-28 23:41:00,55.0,35.1,29.68,SSW,202,11.9,-999.0,47,-99.99,,,0.00,Acu-Link.com,2013-04-29 03:41:00,
2013-04-28 23:56:00,54.3,35.0,29.67,SSW,202,5.8,-999.0,48,-99.99,,,0.00,Acu-Link.com,2013-04-29 03:56:00,